createdAt,value
2019-05-25T00:00:38.092Z,14.81
2019-05-25T00:01:38.063Z,14.84
2019-05-25T00:02:37.615Z,14.84
2019-05-25T00:03:38.055Z,14.84
2019-05-25T00:04:38.117Z,14.88
2019-05-25T00:05:38.035Z,14.8
2019-05-25T00:06:38.034Z,14.84
2019-05-25T00:07:37.779Z,14.83
2019-05-25T00:08:38.056Z,14.88
2019-05-25T00:09:41.165Z,14.84
2019-05-25T00:10:38.015Z,14.78
2019-05-25T00:11:38.009Z,14.83
2019-05-25T00:12:37.998Z,14.83
2019-05-25T00:13:38.004Z,14.84
2019-05-25T00:14:37.984Z,14.78
2019-05-25T00:15:37.983Z,14.86
2019-05-25T00:16:37.968Z,14.83
2019-05-25T00:17:38.225Z,14.83
2019-05-25T00:18:37.982Z,14.8
2019-05-25T00:19:37.946Z,14.84
2019-05-25T00:20:37.940Z,14.86
2019-05-25T00:21:37.947Z,14.84
2019-05-25T00:22:37.932Z,14.83
2019-05-25T00:23:37.927Z,14.8
2019-05-25T00:25:37.671Z,14.84
2019-05-25T00:28:39.174Z,14.88
2019-05-25T00:29:37.887Z,14.83
2019-05-25T00:30:37.879Z,14.8
2019-05-25T00:33:37.620Z,14.83
2019-05-25T00:34:37.849Z,14.81
2019-05-25T00:35:37.866Z,14.75
2019-05-25T00:36:38.852Z,14.73
2019-05-25T00:37:37.925Z,14.61
2019-05-25T00:38:37.822Z,14.68
2019-05-25T00:39:37.818Z,14.62
2019-05-25T00:40:40.360Z,14.61
2019-05-25T00:41:37.811Z,14.58
2019-05-25T00:42:37.795Z,14.64
2019-05-25T00:43:37.855Z,14.58
2019-05-25T00:44:37.786Z,14.52
2019-05-25T00:45:37.780Z,14.64
2019-05-25T00:46:37.778Z,14.55
2019-05-25T00:47:40.921Z,14.54
2019-05-25T05:26:35.275Z,23.22
2019-05-25T05:27:35.270Z,23.66
2019-05-25T05:28:35.271Z,24.06
2019-05-25T05:29:35.300Z,24.28
2019-05-25T05:30:35.279Z,24.65
2019-05-25T05:31:35.265Z,24.9
2019-05-25T05:32:35.266Z,25.25
2019-05-25T05:33:35.269Z,25.43
2019-05-25T05:34:35.278Z,25.75
2019-05-25T05:35:38.654Z,25.95
2019-05-25T05:36:35.274Z,26.23
2019-05-25T05:37:35.308Z,26.5
2019-05-25T05:38:35.281Z,26.63
2019-05-25T05:39:35.294Z,26.72
2019-05-25T05:40:35.291Z,26.81
2019-05-25T05:41:35.991Z,26.75
2019-05-25T05:42:35.301Z,26.82
2019-05-25T05:43:35.313Z,26.94
2019-05-25T05:44:35.109Z,27.04
2019-05-25T05:45:35.319Z,27.34
2019-05-25T05:46:35.350Z,27.69
2019-05-25T05:47:35.089Z,27.96
2019-05-25T05:48:35.500Z,28.18
2019-05-25T05:49:35.347Z,28.44
2019-05-25T05:50:35.359Z,28.34
2019-05-25T05:51:35.362Z,28.4
2019-05-25T05:52:35.366Z,28.44
2019-05-25T05:53:35.372Z,28.74
2019-05-25T05:54:35.390Z,29.06
2019-05-25T05:55:35.389Z,29.31
2019-05-25T05:56:35.401Z,29.7
2019-05-25T05:57:35.165Z,29.92
2019-05-25T05:58:35.433Z,30.08
2019-05-25T05:59:35.430Z,30.11
2019-05-25T06:00:35.473Z,30.02
2019-05-25T06:01:35.499Z,29.82
2019-05-25T06:02:35.212Z,29.61
2019-05-25T06:03:35.461Z,29.57
2019-05-25T06:04:35.469Z,29.71
2019-05-25T06:05:35.492Z,29.94
2019-05-25T06:06:35.492Z,30.04
2019-05-25T06:07:35.505Z,29.92
2019-05-25T06:08:35.507Z,29.86
2019-05-25T06:09:35.519Z,29.9
2019-05-25T06:10:35.538Z,30.05
2019-05-25T06:11:35.539Z,30.05
2019-05-25T06:12:35.311Z,30.05
2019-05-25T06:13:35.596Z,30.13
2019-05-25T06:14:35.581Z,30.17
2019-05-25T06:15:35.578Z,30.37
2019-05-25T06:16:35.601Z,30.6
2019-05-25T06:17:35.953Z,30.94
2019-05-25T06:18:35.619Z,30.97
2019-05-25T06:19:35.627Z,31.12
2019-05-25T06:20:35.641Z,31.09
2019-05-25T06:21:35.644Z,31.07
2019-05-25T06:22:35.665Z,31.26
2019-05-25T06:23:48.406Z,31.48
2019-05-25T06:24:35.684Z,31.51
2019-05-25T06:25:35.705Z,31.65
2019-05-25T06:26:35.704Z,31.84
2019-05-25T06:27:35.480Z,31.95
2019-05-25T06:28:35.730Z,32.01
2019-05-25T06:29:35.737Z,32.13
2019-05-25T06:30:35.792Z,32.33
2019-05-25T06:31:35.764Z,32.43
2019-05-25T06:32:35.829Z,32.47
2019-05-25T06:33:35.781Z,32.33
2019-05-25T06:34:35.803Z,32.01
2019-05-25T06:35:35.808Z,31.51
2019-05-25T06:36:35.816Z,31.14
2019-05-25T06:37:35.837Z,30.73
2019-05-25T06:38:35.850Z,30.49
2019-05-25T06:39:35.962Z,30.47
2019-05-25T06:40:35.876Z,30.64
2019-05-25T06:41:35.890Z,30.88
2019-05-25T06:42:35.894Z,31.06
2019-05-25T06:43:35.904Z,31.36
2019-05-25T06:44:35.930Z,31.68
2019-05-25T06:45:35.930Z,32.03
2019-05-25T06:46:37.782Z,32.52
2019-05-25T06:51:37.020Z,33.12
2019-05-25T06:52:35.533Z,32.85
2019-05-25T06:53:36.030Z,32.57
2019-05-25T06:54:36.049Z,32.52
2019-05-25T06:55:36.056Z,32.44
2019-05-25T06:56:36.066Z,32.56
2019-05-25T06:57:47.197Z,32.75
2019-05-25T06:58:36.086Z,32.66
2019-05-25T06:59:36.113Z,32.52
2019-05-25T07:00:36.112Z,32.37
2019-05-25T07:02:36.136Z,32.38
2019-05-25T07:03:36.204Z,32.28
2019-05-25T07:04:36.165Z,32.5
2019-05-25T07:05:36.175Z,32.57
2019-05-25T07:06:36.178Z,32.89
2019-05-25T07:07:36.239Z,33.29
2019-05-25T07:09:36.228Z,34.19
2019-05-25T07:10:36.228Z,34.32
2019-05-25T07:11:36.241Z,34.5
2019-05-25T07:12:36.007Z,34.49
2019-05-25T07:13:36.272Z,34.12
2019-05-25T07:14:36.279Z,33.63
2019-05-25T07:15:36.293Z,33.32
2019-05-25T07:16:36.303Z,33.15
2019-05-25T07:17:36.068Z,33.11
2019-05-25T07:18:39.860Z,32.97
2019-05-25T07:19:36.340Z,32.79
2019-05-25T07:20:36.348Z,32.3
2019-05-25T07:21:36.371Z,31.91
2019-05-25T07:22:36.128Z,32.03
2019-05-25T07:23:36.385Z,32.14
2019-05-25T07:24:36.435Z,31.85
2019-05-25T07:25:36.168Z,31.47
2019-05-25T07:26:36.415Z,31.32
2019-05-25T07:27:36.430Z,30.99
2019-05-25T07:28:36.436Z,30.61
2019-05-25T07:29:36.457Z,30.38
2019-05-25T07:30:36.461Z,30.17
2019-05-25T07:31:36.474Z,29.83
2019-05-25T07:32:35.995Z,29.41
2019-05-25T07:33:36.495Z,29.27
2019-05-25T07:34:36.258Z,29.09
2019-05-25T07:35:36.512Z,29.16
2019-05-25T07:36:36.528Z,29.15
2019-05-25T07:37:36.043Z,29.12
2019-05-25T07:38:36.545Z,29.05
2019-05-25T07:39:36.620Z,29.06
2019-05-25T07:40:36.570Z,28.95
2019-05-25T07:41:36.594Z,28.93
2019-05-25T07:42:36.082Z,28.86
2019-05-25T07:43:36.583Z,28.93
2019-05-25T07:44:36.643Z,28.95
2019-05-25T07:45:36.603Z,28.9
2019-05-25T07:46:36.607Z,28.88
2019-05-25T07:47:36.166Z,28.92
2019-05-25T07:48:36.625Z,29.14
2019-05-25T07:49:36.626Z,29.09
2019-05-25T07:50:36.633Z,29.08
2019-05-25T07:51:36.695Z,29.08
2019-05-25T07:52:36.160Z,28.8
2019-05-25T07:53:36.655Z,28.49
2019-05-25T07:54:36.665Z,28.31
2019-05-25T07:55:36.671Z,28.24
2019-05-25T07:56:36.677Z,28.12
2019-05-25T07:57:36.689Z,28.03
2019-05-25T07:58:36.686Z,27.9
2019-05-25T07:59:36.709Z,27.77
2019-05-25T08:00:36.698Z,27.79
2019-05-25T08:01:36.717Z,27.77
2019-05-25T08:02:36.223Z,27.69
2019-05-25T08:03:39.712Z,27.55
2019-05-25T08:04:36.723Z,27.43
2019-05-25T08:05:36.728Z,27.34
2019-05-25T08:06:36.741Z,27.29
2019-05-25T08:07:36.251Z,27.27
2019-05-25T08:08:36.745Z,27.31
2019-05-25T08:09:36.754Z,27.37
2019-05-25T08:10:36.757Z,27.44
2019-05-25T08:11:36.759Z,27.49
2019-05-25T08:12:36.519Z,27.47
2019-05-25T08:13:36.770Z,27.47
2019-05-25T08:14:36.775Z,27.49
2019-05-25T08:15:36.780Z,27.55
2019-05-25T08:16:36.793Z,27.44
2019-05-25T08:17:36.556Z,27.47
2019-05-25T08:18:36.798Z,27.36
2019-05-25T08:19:36.797Z,27.12
2019-05-25T08:20:36.806Z,26.99
2019-05-25T08:21:36.807Z,27.03
2019-05-25T08:22:36.613Z,26.91
2019-05-25T08:23:36.823Z,26.87
2019-05-25T08:24:36.829Z,26.81
2019-05-25T08:25:36.826Z,26.69
2019-05-25T08:26:36.839Z,26.67
2019-05-25T08:27:36.836Z,26.73
2019-05-25T08:28:37.866Z,26.76
2019-05-25T08:29:36.842Z,26.81
2019-05-25T08:30:36.860Z,26.81
2019-05-25T08:31:36.852Z,27
2019-05-25T08:32:36.369Z,27.17
2019-05-25T08:33:36.862Z,27.25
2019-05-25T08:34:36.872Z,27.31
2019-05-25T08:35:36.886Z,27.32
2019-05-25T08:36:36.890Z,27.25
2019-05-25T08:37:36.640Z,27.28
2019-05-25T08:38:36.880Z,27.28
2019-05-25T08:39:36.886Z,27.25
2019-05-25T08:40:36.896Z,27.1
2019-05-25T08:41:36.963Z,27.02
2019-05-25T08:42:36.654Z,27
2019-05-25T08:43:36.908Z,26.95
2019-05-25T08:44:36.908Z,26.88
2019-05-25T08:45:36.918Z,26.82
2019-05-25T08:46:36.916Z,26.75
2019-05-25T08:47:36.923Z,26.7
2019-05-25T08:48:36.935Z,26.67
2019-05-25T08:49:36.928Z,26.66
2019-05-25T08:50:43.372Z,26.65
2019-05-25T08:51:36.971Z,26.62
2019-05-25T08:52:36.939Z,26.4
2019-05-25T08:53:49.117Z,26.15
2019-05-25T08:54:36.968Z,25.98
2019-05-25T08:55:36.959Z,25.83
2019-05-25T08:56:36.960Z,25.6
2019-05-25T08:57:36.958Z,25.42
2019-05-25T08:58:55.344Z,25.23
2019-05-25T08:59:36.958Z,25.2
2019-05-25T09:00:36.979Z,25.09
2019-05-25T09:01:36.973Z,24.96
2019-05-25T09:02:38.000Z,24.93
2019-05-25T09:03:36.973Z,24.88
2019-05-25T09:05:36.974Z,24.91
2019-05-25T09:06:36.977Z,24.95
2019-05-25T09:07:36.977Z,24.93
2019-05-25T09:08:36.982Z,24.93
2019-05-25T09:09:36.985Z,24.93
2019-05-25T09:10:36.984Z,24.96
2019-05-25T09:11:36.988Z,24.93
2019-05-25T09:12:36.983Z,25.05
2019-05-25T09:13:36.998Z,24.91
2019-05-25T09:14:36.986Z,24.87
2019-05-25T09:15:36.996Z,24.96
2019-05-25T09:16:36.992Z,24.78
2019-05-25T09:17:37.012Z,24.9
2019-05-25T09:18:36.994Z,24.68
2019-05-25T09:19:36.994Z,24.57
2019-05-25T09:20:37.038Z,24.45
2019-05-25T09:21:37.000Z,24.37
2019-05-25T09:22:36.998Z,24.28
2019-05-25T09:23:37.003Z,24.16
2019-05-25T09:24:37.006Z,24.1
2019-05-25T09:25:36.776Z,24.09
2019-05-25T09:26:37.013Z,24.15
2019-05-25T09:27:37.008Z,24.16
2019-05-25T09:28:37.006Z,24.1
2019-05-25T09:29:36.761Z,24.09
2019-05-25T09:30:37.010Z,23.95
2019-05-25T09:31:37.008Z,23.84
2019-05-25T09:32:36.531Z,23.76
2019-05-25T09:33:37.008Z,23.66
2019-05-25T09:34:37.008Z,23.63
2019-05-25T09:35:37.005Z,23.61
2019-05-25T09:36:37.007Z,23.54
2019-05-25T09:37:37.010Z,23.6
2019-05-25T09:38:37.008Z,23.66
2019-05-25T09:39:37.017Z,23.57
2019-05-25T09:40:37.011Z,23.65
2019-05-25T09:41:36.812Z,23.68
2019-05-25T09:42:37.005Z,23.66
2019-05-25T09:43:38.803Z,23.76
2019-05-25T09:44:37.019Z,23.69
2019-05-25T09:45:37.008Z,23.72
2019-05-25T09:46:37.018Z,23.73
2019-05-25T09:47:36.762Z,23.69
2019-05-25T09:48:40.554Z,23.7
2019-05-25T09:49:37.009Z,23.69
2019-05-25T09:50:37.006Z,23.7
2019-05-25T09:51:37.009Z,23.83
2019-05-25T09:52:36.768Z,23.7
2019-05-25T09:53:37.016Z,23.7
2019-05-25T09:54:37.007Z,23.48
2019-05-25T09:55:37.011Z,23.4
2019-05-25T09:56:37.006Z,23.38
2019-05-25T09:57:36.770Z,23.32
2019-05-25T09:58:37.007Z,23.25
2019-05-25T09:59:37.014Z,23.15
2019-05-25T10:00:40.130Z,23.16
2019-05-25T10:01:37.007Z,23.12
2019-05-25T10:02:37.128Z,23.16
2019-05-25T10:03:37.078Z,23.22
2019-05-25T10:04:37.012Z,23.22
2019-05-25T10:05:37.006Z,23.25
2019-05-25T10:06:37.009Z,23.25
2019-05-25T10:07:36.523Z,23.22
2019-05-25T10:08:37.003Z,23.23
2019-05-25T10:09:39.975Z,23.27
2019-05-25T10:10:37.016Z,23.46
2019-05-25T10:11:37.010Z,23.61
2019-05-25T10:12:37.007Z,23.76
2019-05-25T10:13:37.003Z,23.94
2019-05-25T10:14:37.002Z,24.06
2019-05-25T10:15:37.008Z,24.1
2019-05-25T10:16:37.005Z,24.16
2019-05-25T10:17:37.010Z,24.4
2019-05-25T10:18:37.008Z,24.49
2019-05-25T10:19:37.004Z,24.57
2019-05-25T10:20:37.005Z,24.53
2019-05-25T10:21:37.023Z,24.55
2019-05-25T10:22:37.021Z,24.53
2019-05-25T10:23:37.008Z,24.68
2019-05-25T10:24:37.023Z,24.76
2019-05-25T10:25:37.028Z,24.78
2019-05-25T10:26:37.010Z,24.9
2019-05-25T10:27:39.106Z,25.06
2019-05-25T10:28:37.021Z,25.14
2019-05-25T10:29:41.991Z,25.35
2019-05-25T10:30:37.013Z,25.38
2019-05-25T10:31:36.803Z,25.51
2019-05-25T10:32:36.788Z,25.51
2019-05-25T10:33:37.560Z,25.39
2019-05-25T10:34:37.025Z,25.47
2019-05-25T10:35:37.024Z,25.39
2019-05-25T10:36:36.785Z,25.33
2019-05-25T10:37:36.797Z,25.35
2019-05-25T10:38:37.027Z,25.14
2019-05-25T10:39:37.035Z,25.15
2019-05-25T10:40:37.032Z,25.15
2019-05-25T10:41:37.037Z,25.13
2019-05-25T10:42:37.032Z,25.25
2019-05-25T10:43:37.032Z,25.42
2019-05-25T10:44:37.056Z,25.64
2019-05-25T10:45:37.048Z,25.76
2019-05-25T10:46:37.096Z,25.85
2019-05-25T10:47:37.039Z,25.94
2019-05-25T10:48:37.059Z,26.01
2019-05-25T10:49:37.067Z,26.2
2019-05-25T10:50:36.804Z,26.29
2019-05-25T10:51:37.053Z,26.26
2019-05-25T10:52:37.051Z,26.23
2019-05-25T10:53:37.054Z,26.32
2019-05-25T10:54:37.061Z,26.36
2019-05-25T10:55:37.058Z,26.58
2019-05-25T10:56:37.062Z,26.55
2019-05-25T10:57:37.060Z,26.63
2019-05-25T10:58:37.068Z,26.65
2019-05-25T10:59:51.821Z,26.67
2019-05-25T11:00:36.837Z,26.63
2019-05-25T11:01:37.099Z,26.51
2019-05-25T11:02:37.079Z,26.57
2019-05-25T11:03:37.079Z,26.58
2019-05-25T11:04:37.091Z,26.55
2019-05-25T11:05:37.087Z,26.6
2019-05-25T11:06:39.644Z,26.7
2019-05-25T11:07:37.096Z,26.63
2019-05-25T11:08:37.173Z,26.48
2019-05-25T11:09:37.105Z,26.33
2019-05-25T11:10:37.101Z,26.23
2019-05-25T11:11:37.103Z,26.21
2019-05-25T11:12:36.884Z,26.21
2019-05-25T11:13:37.115Z,26.32
2019-05-25T11:14:37.130Z,26.33
2019-05-25T11:15:37.111Z,26.4
2019-05-25T11:16:37.134Z,26.47
2019-05-25T11:17:37.143Z,26.57
2019-05-25T11:18:37.136Z,26.62
2019-05-25T11:19:37.127Z,26.66
2019-05-25T11:20:37.122Z,26.7
2019-05-25T11:21:37.143Z,26.77
2019-05-25T11:22:37.132Z,26.81
2019-05-25T11:23:36.906Z,26.95
2019-05-25T11:24:37.140Z,27.06
2019-05-25T11:25:37.148Z,27.13
2019-05-25T11:26:37.188Z,27.09
2019-05-25T11:27:36.901Z,27.13
2019-05-25T11:28:37.166Z,27.17
2019-05-25T11:29:37.192Z,27.19
2019-05-25T11:30:37.159Z,27.06
2019-05-25T11:31:37.422Z,26.75
2019-05-25T11:32:37.157Z,26.54
2019-05-25T11:33:39.112Z,26.35
2019-05-25T11:34:37.163Z,26.13
2019-05-25T11:35:37.197Z,26.12
2019-05-25T11:36:37.171Z,26.05
2019-05-25T11:37:36.930Z,25.82
2019-05-25T11:38:37.180Z,25.7
2019-05-25T11:39:36.939Z,25.61
2019-05-25T11:40:37.190Z,25.57
2019-05-25T11:41:37.198Z,25.55
2019-05-25T11:42:37.187Z,25.61
2019-05-25T11:43:37.189Z,25.61
2019-05-25T11:44:37.197Z,25.64
2019-05-25T11:45:37.194Z,25.7
2019-05-25T11:46:37.213Z,25.88
2019-05-25T11:47:37.332Z,25.94
2019-05-25T11:48:36.954Z,26.02
2019-05-25T11:49:37.200Z,26.23
2019-05-25T11:50:37.206Z,26.23
2019-05-25T11:51:37.200Z,26.33
2019-05-25T11:52:36.972Z,26.37
2019-05-25T11:53:37.207Z,26.4
2019-05-25T11:54:37.209Z,26.45
2019-05-25T11:55:37.215Z,26.54
2019-05-25T11:56:37.217Z,26.5
2019-05-25T11:57:36.975Z,26.45
2019-05-25T11:58:51.671Z,26.48
2019-05-25T11:59:37.224Z,26.39
2019-05-25T12:00:37.225Z,26.43
2019-05-25T12:01:36.986Z,26.4
2019-05-25T12:02:37.227Z,26.37
2019-05-25T12:03:37.233Z,26.39
2019-05-25T12:04:36.989Z,26.47
2019-05-25T12:05:37.238Z,26.52
2019-05-25T12:06:37.233Z,26.58
2019-05-25T12:07:36.997Z,26.7
2019-05-25T12:08:37.243Z,26.69
2019-05-25T12:09:37.283Z,26.77
2019-05-25T12:10:37.253Z,26.8
2019-05-25T12:11:37.255Z,26.76
2019-05-25T12:12:37.253Z,26.67
2019-05-25T12:13:37.009Z,26.73
2019-05-25T12:14:37.330Z,26.6
2019-05-25T12:15:37.265Z,26.52
2019-05-25T12:16:37.261Z,26.5
2019-05-25T12:17:37.020Z,26.44
2019-05-25T12:18:37.292Z,26.4
2019-05-25T12:19:37.268Z,26.39
2019-05-25T12:20:37.279Z,26.3
2019-05-25T12:21:37.281Z,26.07
2019-05-25T12:22:37.281Z,25.83
2019-05-25T12:23:37.281Z,25.46
2019-05-25T12:24:37.279Z,25.33
2019-05-25T12:25:37.280Z,25.24
2019-05-25T12:26:37.286Z,25.02
2019-05-25T12:27:37.362Z,25.03
2019-05-25T12:28:37.291Z,24.93
2019-05-25T12:29:37.296Z,24.93
2019-05-25T12:30:45.879Z,24.88
2019-05-25T12:31:37.292Z,24.87
2019-05-25T12:32:37.292Z,24.64
2019-05-25T12:33:37.298Z,24.61
2019-05-25T12:34:37.301Z,24.61
2019-05-25T12:35:37.298Z,24.67
2019-05-25T12:36:37.297Z,24.8
2019-05-25T12:37:37.320Z,24.77
2019-05-25T12:38:37.302Z,24.88
2019-05-25T12:39:37.306Z,24.81
2019-05-25T12:40:50.898Z,24.84
2019-05-25T12:41:37.303Z,24.85
2019-05-25T12:42:37.306Z,24.78
2019-05-25T12:43:37.305Z,24.87
2019-05-25T12:44:39.586Z,24.85
2019-05-25T12:45:37.315Z,24.87
2019-05-25T12:46:37.324Z,24.91
2019-05-25T12:47:37.311Z,24.78
2019-05-25T12:48:37.317Z,24.85
2019-05-25T12:49:54.818Z,24.81
2019-05-25T12:50:37.313Z,24.84
2019-05-25T12:51:37.328Z,24.99
2019-05-25T12:52:37.319Z,25.02
2019-05-25T12:53:37.321Z,25.03
2019-05-25T12:54:37.318Z,25.02
2019-05-25T12:55:37.326Z,25
2019-05-25T12:56:37.331Z,25
2019-05-25T12:57:37.325Z,24.98
2019-05-25T12:58:37.320Z,24.95
2019-05-25T12:59:37.328Z,24.93
2019-05-25T13:00:37.323Z,24.93
2019-05-25T13:01:37.324Z,24.95
2019-05-25T13:02:37.336Z,24.83
2019-05-25T13:03:37.327Z,24.8
2019-05-25T13:04:37.328Z,24.84
2019-05-25T13:05:39.291Z,24.73
2019-05-25T13:06:37.339Z,24.83
2019-05-25T13:07:36.850Z,24.69
2019-05-25T13:08:37.336Z,24.69
2019-05-25T13:09:37.333Z,24.76
2019-05-25T13:10:37.334Z,24.85
2019-05-25T13:11:37.361Z,24.8
2019-05-25T13:12:37.341Z,24.77
2019-05-25T13:13:37.336Z,24.81
2019-05-25T13:14:37.346Z,24.84
2019-05-25T13:15:37.360Z,24.9
2019-05-25T13:16:37.342Z,24.78
2019-05-25T13:17:37.342Z,24.69
2019-05-25T13:18:37.345Z,24.64
2019-05-25T13:19:37.341Z,24.65
2019-05-25T13:20:37.349Z,24.67
2019-05-25T13:21:37.341Z,24.61
2019-05-25T13:22:37.346Z,24.49
2019-05-25T13:23:37.103Z,24.58
2019-05-25T13:24:37.346Z,24.65
2019-05-25T13:25:37.348Z,24.67
2019-05-25T13:26:37.368Z,24.76
2019-05-25T13:27:37.350Z,24.84
2019-05-25T13:28:37.353Z,24.91
2019-05-25T13:29:37.355Z,24.85
2019-05-25T13:30:37.354Z,24.85
2019-05-25T13:31:37.353Z,24.87
2019-05-25T13:32:36.865Z,24.9
2019-05-25T13:33:37.353Z,24.98
2019-05-25T13:34:37.361Z,25.03
2019-05-25T13:35:37.357Z,25
2019-05-25T13:36:37.384Z,25.05
2019-05-25T13:37:37.110Z,24.99
2019-05-25T13:38:37.352Z,24.9
2019-05-25T13:39:37.371Z,24.9
2019-05-25T13:40:37.357Z,24.91
2019-05-25T13:41:37.357Z,24.84
2019-05-25T13:42:37.117Z,24.81
2019-05-25T13:43:37.357Z,24.96
2019-05-25T13:44:37.358Z,24.83
2019-05-25T13:45:37.360Z,24.8
2019-05-25T13:46:37.362Z,24.93
2019-05-25T13:47:37.120Z,24.95
2019-05-25T13:48:37.365Z,24.9
2019-05-25T13:49:37.363Z,24.84
2019-05-25T13:50:37.370Z,24.84
2019-05-25T13:51:37.366Z,24.71
2019-05-25T13:52:37.127Z,24.76
2019-05-25T13:53:37.910Z,24.62
2019-05-25T13:54:37.369Z,24.53
2019-05-25T13:55:37.366Z,24.53
2019-05-25T13:56:37.371Z,24.47
2019-05-25T13:57:37.366Z,24.34
2019-05-25T13:58:39.192Z,24.2
2019-05-25T13:59:37.378Z,24.18
2019-05-25T14:00:37.384Z,24.03
2019-05-25T14:01:37.374Z,23.94
2019-05-25T14:02:37.370Z,23.8
2019-05-25T14:03:37.128Z,23.66
2019-05-25T14:04:37.373Z,23.57
2019-05-25T14:05:37.379Z,23.53
2019-05-25T14:06:37.369Z,23.47
2019-05-25T14:07:37.371Z,23.54
2019-05-25T14:08:37.386Z,23.65
2019-05-25T14:09:37.370Z,23.63
2019-05-25T14:10:37.370Z,23.7
2019-05-25T14:11:37.391Z,23.84
2019-05-25T14:12:37.376Z,23.83
2019-05-25T14:13:37.375Z,23.84
2019-05-25T14:14:37.383Z,23.79
2019-05-25T14:15:37.370Z,23.85
2019-05-25T14:16:37.371Z,23.83
2019-05-25T14:17:37.415Z,23.8
2019-05-25T14:18:37.373Z,23.79
2019-05-25T14:19:40.671Z,23.72
2019-05-25T14:20:37.382Z,23.72
2019-05-25T14:21:37.376Z,23.73
2019-05-25T14:22:37.370Z,23.69
2019-05-25T14:23:37.371Z,23.69
2019-05-25T14:24:37.376Z,23.68
2019-05-25T14:25:37.369Z,23.69
2019-05-25T14:26:37.372Z,23.73
2019-05-25T14:27:37.377Z,23.6
2019-05-25T14:28:37.371Z,23.66
2019-05-25T14:29:37.369Z,23.73
2019-05-25T14:30:37.371Z,23.79
2019-05-25T14:31:50.335Z,23.95
2019-05-25T14:32:37.129Z,24.13
2019-05-25T14:33:37.373Z,24.1
2019-05-25T14:34:37.365Z,24.1
2019-05-25T14:35:37.368Z,23.9
2019-05-25T14:36:37.374Z,23.63
2019-05-25T14:37:37.379Z,23.6
2019-05-25T14:38:37.371Z,23.57
2019-05-25T14:39:37.367Z,23.51
2019-05-25T14:40:37.362Z,23.53
2019-05-25T14:41:37.365Z,23.51
2019-05-25T14:42:37.371Z,23.5
2019-05-25T14:43:37.396Z,23.4
2019-05-25T14:44:37.371Z,23.38
2019-05-25T14:45:37.361Z,23.31
2019-05-25T14:46:37.361Z,23.42
2019-05-25T14:47:37.366Z,23.42
2019-05-25T14:48:37.363Z,23.32
2019-05-25T14:49:37.458Z,23.23
2019-05-25T14:50:37.362Z,23.25
2019-05-25T14:51:37.364Z,23.2
2019-05-25T14:52:37.358Z,23.04
2019-05-25T14:53:37.372Z,23.05
2019-05-25T14:54:37.363Z,22.94
2019-05-25T14:55:37.140Z,22.88
2019-05-25T14:56:37.367Z,22.91
2019-05-25T14:57:37.363Z,22.82
2019-05-25T14:58:37.471Z,22.72
2019-05-25T14:59:37.362Z,22.72
2019-05-25T15:00:37.361Z,22.64
2019-05-25T15:01:37.369Z,22.62
2019-05-25T15:02:37.110Z,22.61
2019-05-25T15:03:37.357Z,22.65
2019-05-25T15:04:37.351Z,22.65
2019-05-25T15:05:37.358Z,22.77
2019-05-25T15:06:37.361Z,22.9
2019-05-25T15:07:37.115Z,22.97
2019-05-25T15:08:37.349Z,22.91
2019-05-25T15:09:37.345Z,22.95
2019-05-25T15:10:37.370Z,22.95
2019-05-25T15:11:37.346Z,23.04
2019-05-25T15:12:37.102Z,23
2019-05-25T15:13:37.358Z,22.95
2019-05-25T15:14:37.343Z,22.94
2019-05-25T15:15:37.339Z,23.04
2019-05-25T15:16:37.345Z,23.02
2019-05-25T15:17:42.232Z,22.98
2019-05-25T15:18:37.339Z,22.97
2019-05-25T15:19:37.333Z,22.9
2019-05-25T15:20:37.335Z,22.83
2019-05-25T15:21:37.553Z,22.75
2019-05-25T15:22:37.334Z,22.7
2019-05-25T15:23:37.337Z,22.64
2019-05-25T15:24:37.086Z,22.55
2019-05-25T15:25:37.326Z,22.54
2019-05-25T15:26:37.330Z,22.51
2019-05-25T15:27:36.839Z,22.35
2019-05-25T15:28:37.329Z,22.2
2019-05-25T15:29:37.327Z,22.05
2019-05-25T15:30:37.326Z,21.86
2019-05-25T15:31:37.327Z,21.94
2019-05-25T15:32:37.319Z,21.86
2019-05-25T15:33:37.322Z,21.83
2019-05-25T15:34:37.327Z,21.71
2019-05-25T15:35:37.327Z,21.69
2019-05-25T15:36:37.315Z,21.82
2019-05-25T15:37:37.072Z,21.82
2019-05-25T15:38:37.331Z,21.77
2019-05-25T15:39:37.312Z,21.82
2019-05-25T15:40:39.090Z,21.72
2019-05-25T15:41:37.309Z,21.72
2019-05-25T15:42:37.068Z,21.8
2019-05-25T15:43:37.309Z,21.71
2019-05-25T15:44:37.313Z,21.71
2019-05-25T15:45:37.314Z,21.74
2019-05-25T15:46:37.307Z,21.64
2019-05-25T15:47:37.155Z,21.62
2019-05-25T15:48:37.301Z,21.61
2019-05-25T15:49:38.552Z,21.72
2019-05-25T15:50:37.298Z,21.74
2019-05-25T15:51:37.298Z,21.8
2019-05-25T15:52:37.291Z,21.83
2019-05-25T15:53:37.300Z,21.92
2019-05-25T15:54:37.302Z,22
2019-05-25T15:55:37.285Z,22.12
2019-05-25T15:56:37.043Z,22.25
2019-05-25T15:57:37.048Z,22.33
2019-05-25T15:58:37.285Z,22.35
2019-05-25T15:59:37.284Z,22.36
2019-05-25T16:00:39.709Z,22.25
2019-05-25T16:01:37.039Z,22.21
2019-05-25T16:02:41.312Z,22.09
2019-05-25T16:03:37.277Z,22
2019-05-25T16:04:38.191Z,21.8
2019-05-25T16:05:37.284Z,21.69
2019-05-25T16:06:37.268Z,21.61
2019-05-25T16:07:37.028Z,21.61
2019-05-25T16:08:37.271Z,21.62
2019-05-25T16:09:37.270Z,21.64
2019-05-25T16:10:37.270Z,21.62
2019-05-25T16:11:37.273Z,21.69
2019-05-25T16:12:37.268Z,21.58
2019-05-25T16:13:37.291Z,21.44
2019-05-25T16:14:37.266Z,21.49
2019-05-25T16:15:37.260Z,21.37
2019-05-25T16:16:37.261Z,21.34
2019-05-25T16:17:37.253Z,21.37
2019-05-25T16:18:37.286Z,21.37
2019-05-25T16:19:37.252Z,21.34
2019-05-25T16:20:37.249Z,21.34
2019-05-25T16:21:37.246Z,21.34
2019-05-25T16:22:36.757Z,21.4
2019-05-25T16:23:37.245Z,21.42
2019-05-25T16:24:37.252Z,21.21
2019-05-25T16:25:37.236Z,21.06
2019-05-25T16:26:50.175Z,21.13
2019-05-25T16:27:37.232Z,21.07
2019-05-25T16:28:37.233Z,21.07
2019-05-25T16:29:37.232Z,20.95
2019-05-25T16:30:37.252Z,20.88
2019-05-25T16:31:38.702Z,20.85
2019-05-25T16:33:00.271Z,20.72
2019-05-25T16:33:37.232Z,20.61
2019-05-25T16:34:37.252Z,20.54
2019-05-25T16:35:36.974Z,20.41
2019-05-25T16:36:37.212Z,20.31
2019-05-25T16:37:38.086Z,20.26
2019-05-25T16:38:37.250Z,20.2
2019-05-25T16:39:37.205Z,20.13
2019-05-25T16:40:37.269Z,20.14
2019-05-25T16:41:37.205Z,20.17
2019-05-25T16:42:36.963Z,20.17
2019-05-25T16:43:37.200Z,20.29
2019-05-25T16:44:37.236Z,20.26
2019-05-25T16:45:37.195Z,20.23
2019-05-25T16:46:37.191Z,20.23
2019-05-25T16:47:36.697Z,20.14
2019-05-25T16:48:37.190Z,20.2
2019-05-25T16:49:37.182Z,20.18
2019-05-25T16:50:37.184Z,20.2
2019-05-25T16:51:37.186Z,20.1
2019-05-25T16:52:36.683Z,20.18
2019-05-25T16:53:37.173Z,20.06
2019-05-25T16:54:37.170Z,20.03
2019-05-25T16:55:37.168Z,20.03
2019-05-25T16:56:37.187Z,20.06
2019-05-25T16:57:37.172Z,19.94
2019-05-25T16:58:37.165Z,19.84
2019-05-25T16:59:37.158Z,19.71
2019-05-25T17:00:37.233Z,19.61
2019-05-25T17:01:52.260Z,19.62
2019-05-25T17:02:37.155Z,19.62
2019-05-25T17:03:37.148Z,19.56
2019-05-25T17:04:37.146Z,19.51
2019-05-25T17:05:37.133Z,19.31
2019-05-25T17:06:37.134Z,19.32
2019-05-25T17:07:36.648Z,19.29
2019-05-25T17:08:37.129Z,19.32
2019-05-25T17:09:37.127Z,19.37
2019-05-25T17:10:37.122Z,19.4
2019-05-25T17:11:37.123Z,19.43
2019-05-25T17:12:36.872Z,19.37
2019-05-25T17:13:37.114Z,19.32
2019-05-25T17:14:37.108Z,19.41
2019-05-25T17:15:37.109Z,19.36
2019-05-25T17:16:37.100Z,19.43
2019-05-25T17:17:37.099Z,19.43
2019-05-25T17:18:37.096Z,19.29
2019-05-25T17:19:37.092Z,19.41
2019-05-25T17:20:37.085Z,19.33
2019-05-25T17:21:37.103Z,19.36
2019-05-25T17:22:36.836Z,19.23
2019-05-25T17:23:37.081Z,19.26
2019-05-25T17:24:37.071Z,19.06
2019-05-25T17:25:37.079Z,18.99
2019-05-25T17:26:37.070Z,19.04
2019-05-25T17:27:37.067Z,18.94
2019-05-25T17:28:37.067Z,18.92
2019-05-25T17:29:37.061Z,19.07
2019-05-25T17:30:37.052Z,18.94
2019-05-25T17:31:37.050Z,18.9
2019-05-25T17:32:36.803Z,18.94
2019-05-25T17:33:50.656Z,18.9
2019-05-25T17:34:37.035Z,18.81
2019-05-25T17:35:37.061Z,18.78
2019-05-25T17:36:37.035Z,18.84
2019-05-25T17:37:37.031Z,18.8
2019-05-25T17:38:37.025Z,18.75
2019-05-25T17:39:37.028Z,18.57
2019-05-25T17:40:37.016Z,18.57
2019-05-25T17:41:37.012Z,18.57
2019-05-25T17:42:36.771Z,18.48
2019-05-25T17:43:37.067Z,18.47
2019-05-25T17:44:37.000Z,18.54
2019-05-25T17:45:37.006Z,18.45
2019-05-25T17:46:37.011Z,18.37